Pertusola — IBER — position and weather

sailwx.info

Track history (hours):
 
Tides and Currents Weather Stations Pressure Air Temp Water Temp Dewpoint Dewpoint Depression Visibility Wind Speed Wind Dir Waves Ship Positions

Pertusola

Last reported at 2014-Nov-29 02:21 UTC. Time now 2014-Nov-29 07:27 UTC.
Position N 56°34' E 011°26'.

Length 145 m; draft 6.5 m.

Type: Ship (hazmat cat A). MMSI: 247399000.

Date/timePositionNaut miles runAvg speedWind from/ knotsBaromVisibWave heightAir tempDewpointWater temp
2014-Nov-29 02:21N 56°34' E 011°26'1215.3
2014-Nov-29 01:33N 56°42' E 011°43'1212.2
2014-Nov-29 00:33N 56°54' E 011°45'1414.3
2014-Nov-28 23:33N 57°07' E 011°37'1414.2
2014-Nov-28 22:33N 57°21' E 011°28'1413.6
2014-Nov-28 21:34N 57°32' E 011°15'1514.2
2014-Nov-28 20:29N 57°43' E 010°54'1313.9
2014-Nov-28 19:33N 57°53' E 010°39'1514.5
2014-Nov-28 18:33N 58°06' E 010°28'1514.7
2014-Nov-28 17:33N 58°20' E 010°18'4514.6
2014-Nov-28 14:30N 59°01' E 009°45'7 7.3
2014-Nov-28 13:33N 59°07' E 009°38'0 0.0
2014-Nov-28 12:20N 59°07' E 009°38'0 0.0
2014-Nov-28 11:26N 59°07' E 009°38'0 0.0
2014-Nov-28 10:20N 59°07' E 009°38'0 0.0
2014-Nov-28 09:26N 59°07' E 009°38'0 0.0
2014-Nov-28 08:14N 59°07' E 009°38'0 0.0
2014-Nov-28 07:26N 59°07' E 009°38'0 0.0
2014-Nov-28 06:14N 59°07' E 009°38'0 0.0
2014-Nov-28 05:26N 59°07' E 009°38'0 0.0
2014-Nov-28 04:26N 59°07' E 009°38'0 0.0
2014-Nov-28 03:32N 59°07' E 009°38'0 0.0
2014-Nov-28 02:32N 59°07' E 009°38'0 0.0
2014-Nov-28 01:32N 59°07' E 009°38'0 0.0
2014-Nov-28 00:32N 59°07' E 009°38'0 0.0
2014-Nov-27 23:08N 59°07' E 009°38'0 0.0
2014-Nov-27 22:20N 59°07' E 009°38'0 0.0
2014-Nov-27 21:26N 59°07' E 009°38'0 0.0
2014-Nov-27 20:26N 59°07' E 009°38'0 0.0
2014-Nov-27 19:26N 59°07' E 009°38'0 0.0
2014-Nov-27 17:14N 59°07' E 009°38'0 0.0
2014-Nov-27 15:32N 59°07' E 009°38'0 0.0
2014-Nov-27 14:26N 59°07' E 009°38'0 0.0
2014-Nov-27 12:17N 59°07' E 009°38'0 0.0
2014-Nov-27 11:32N 59°07' E 009°38'5 2.2
2014-Nov-27 09:25N 59°03' E 009°43'3210.9
2014-Nov-27 06:30N 58°34' E 010°07'1314.1
2014-Nov-27 05:33N 58°22' E 010°17'2 2.3
2014-Nov-27 04:34N 58°23' E 010°15'1413.8
2014-Nov-27 03:34N 58°11' E 010°26'1414.0
2014-Nov-27 02:33N 57°58' E 010°37'1413.9
2014-Nov-27 01:33N 57°46' E 010°50'1515.0
2014-Nov-27 00:34N 57°36' E 011°11'1414.4
2014-Nov-26 23:33N 57°25' E 011°28'6011.5
2014-Nov-26 18:22N 56°26' E 011°12'6212.8
2014-Nov-26 13:32N 55°25' E 010°59'1313.1
2014-Nov-26 12:33N 55°12' E 011°06'4510.4
2014-Nov-26 08:14N 54°30' E 011°34'913.9
2014-Nov-26 07:33N 54°26' E 011°48'1312.8
2014-Nov-26 06:32N 54°28' E 012°10'1613.0
2014-Nov-26 05:16N 54°42' E 012°27'1013.8
2014-Nov-26 04:33N 54°47' E 012°41'4613.9
2014-Nov-26 01:15N 55°03' E 013°56'1013.7
2014-Nov-26 00:33N 55°09' E 014°09'1414.0
2014-Nov-25 23:33N 55°20' E 014°25'1413.7
2014-Nov-25 22:33N 55°29' E 014°42'1413.9
2014-Nov-25 21:34N 55°36' E 015°03'35411.6
2014-Nov-24 15:12N 59°37' E 023°07'711.5
2014-Nov-24 14:33N 59°39' E 023°21'1211.6
2014-Nov-24 13:33N 59°42' E 023°43'1511.8
2014-Nov-24 12:18N 59°46' E 024°12'912.8
2014-Nov-24 11:33N 59°48' E 024°30'5512.3
2014-Nov-24 07:03N 59°58' E 026°18'611.7
2014-Nov-24 06:33N 59°54' E 026°25'9 0.2
2014-Nov-22 18:31N 59°49' E 026°40'1914.7
2014-Nov-22 17:14N 59°54' E 026°04'1615.8
2014-Nov-22 16:16N 59°51' E 025°34'1615.9
2014-Nov-22 15:16N 59°47' E 025°03'1215.9
2014-Nov-22 14:31N 59°45' E 024°40'1515.7
2014-Nov-22 13:33N 59°41' E 024°11'1615.7
2014-Nov-22 12:33N 59°36' E 023°41'1715.8
2014-Nov-22 11:28N 59°30' E 023°09'  
2014-Nov-19 06:16N 56°52' E 018°35'  
Track history (hours):
 
Tides and Currents Weather Stations Pressure Air Temp Water Temp Dewpoint Dewpoint Depression Visibility Wind Speed Wind Dir Waves Ship Positions

Pertusola

Last reported at 2014-Nov-29 02:21 UTC. Time now 2014-Nov-29 07:27 UTC.
Position N 56°34' E 011°26'.

Length 145 m; draft 6.5 m.

Type: Ship (hazmat cat A). MMSI: 247399000.

Date/timePositionNaut miles runAvg speedWind from/ knotsBaromVisibWave heightAir tempDewpointWater temp
2014-Nov-29 02:21N 56°34' E 011°26'1215.3
2014-Nov-29 01:33N 56°42' E 011°43'1212.2
2014-Nov-29 00:33N 56°54' E 011°45'1414.3
2014-Nov-28 23:33N 57°07' E 011°37'1414.2
2014-Nov-28 22:33N 57°21' E 011°28'1413.6
2014-Nov-28 21:34N 57°32' E 011°15'1514.2
2014-Nov-28 20:29N 57°43' E 010°54'1313.9
2014-Nov-28 19:33N 57°53' E 010°39'1514.5
2014-Nov-28 18:33N 58°06' E 010°28'1514.7
2014-Nov-28 17:33N 58°20' E 010°18'4514.6
2014-Nov-28 14:30N 59°01' E 009°45'7 7.3
2014-Nov-28 13:33N 59°07' E 009°38'0 0.0
2014-Nov-28 12:20N 59°07' E 009°38'0 0.0
2014-Nov-28 11:26N 59°07' E 009°38'0 0.0
2014-Nov-28 10:20N 59°07' E 009°38'0 0.0
2014-Nov-28 09:26N 59°07' E 009°38'0 0.0
2014-Nov-28 08:14N 59°07' E 009°38'0 0.0
2014-Nov-28 07:26N 59°07' E 009°38'0 0.0
2014-Nov-28 06:14N 59°07' E 009°38'0 0.0
2014-Nov-28 05:26N 59°07' E 009°38'0 0.0
2014-Nov-28 04:26N 59°07' E 009°38'0 0.0
2014-Nov-28 03:32N 59°07' E 009°38'0 0.0
2014-Nov-28 02:32N 59°07' E 009°38'0 0.0
2014-Nov-28 01:32N 59°07' E 009°38'0 0.0
2014-Nov-28 00:32N 59°07' E 009°38'0 0.0
2014-Nov-27 23:08N 59°07' E 009°38'0 0.0
2014-Nov-27 22:20N 59°07' E 009°38'0 0.0
2014-Nov-27 21:26N 59°07' E 009°38'0 0.0
2014-Nov-27 20:26N 59°07' E 009°38'0 0.0
2014-Nov-27 19:26N 59°07' E 009°38'0 0.0
2014-Nov-27 17:14N 59°07' E 009°38'0 0.0
2014-Nov-27 15:32N 59°07' E 009°38'0 0.0
2014-Nov-27 14:26N 59°07' E 009°38'0 0.0
2014-Nov-27 12:17N 59°07' E 009°38'0 0.0
2014-Nov-27 11:32N 59°07' E 009°38'5 2.2
2014-Nov-27 09:25N 59°03' E 009°43'3210.9
2014-Nov-27 06:30N 58°34' E 010°07'1314.1
2014-Nov-27 05:33N 58°22' E 010°17'2 2.3
2014-Nov-27 04:34N 58°23' E 010°15'1413.8
2014-Nov-27 03:34N 58°11' E 010°26'1414.0
2014-Nov-27 02:33N 57°58' E 010°37'1413.9
2014-Nov-27 01:33N 57°46' E 010°50'1515.0
2014-Nov-27 00:34N 57°36' E 011°11'1414.4
2014-Nov-26 23:33N 57°25' E 011°28'6011.5
2014-Nov-26 18:22N 56°26' E 011°12'6212.8
2014-Nov-26 13:32N 55°25' E 010°59'1313.1
2014-Nov-26 12:33N 55°12' E 011°06'4510.4
2014-Nov-26 08:14N 54°30' E 011°34'913.9
2014-Nov-26 07:33N 54°26' E 011°48'1312.8
2014-Nov-26 06:32N 54°28' E 012°10'1613.0
2014-Nov-26 05:16N 54°42' E 012°27'1013.8
2014-Nov-26 04:33N 54°47' E 012°41'4613.9
2014-Nov-26 01:15N 55°03' E 013°56'1013.7
2014-Nov-26 00:33N 55°09' E 014°09'1414.0
2014-Nov-25 23:33N 55°20' E 014°25'1413.7
2014-Nov-25 22:33N 55°29' E 014°42'1413.9
2014-Nov-25 21:34N 55°36' E 015°03'35411.6
2014-Nov-24 15:12N 59°37' E 023°07'711.5
2014-Nov-24 14:33N 59°39' E 023°21'1211.6
2014-Nov-24 13:33N 59°42' E 023°43'1511.8
2014-Nov-24 12:18N 59°46' E 024°12'912.8
2014-Nov-24 11:33N 59°48' E 024°30'5512.3
2014-Nov-24 07:03N 59°58' E 026°18'611.7
2014-Nov-24 06:33N 59°54' E 026°25'9 0.2
2014-Nov-22 18:31N 59°49' E 026°40'1914.7
2014-Nov-22 17:14N 59°54' E 026°04'1615.8
2014-Nov-22 16:16N 59°51' E 025°34'1615.9
2014-Nov-22 15:16N 59°47' E 025°03'1215.9
2014-Nov-22 14:31N 59°45' E 024°40'1515.7
2014-Nov-22 13:33N 59°41' E 024°11'1615.7
2014-Nov-22 12:33N 59°36' E 023°41'1715.8
2014-Nov-22 11:28N 59°30' E 023°09'  
2014-Nov-19 06:16N 56°52' E 018°35'  

Dump ship's entire track history